Flight Track Log - Related Links

Times and Time Zones

All times are in EDT time to prevent confusion due to time zone crossing. See the UAL4108 flight status page for this flight to view local times or setup timezone preferences in your user account.

Time Position Orientation Groundspeed Altitude Reporting Facility
EDT Latitude Longitude Course Direction KTS MPH feet Rate Location/Type
Tue 07:27:50 AM 34.7136 -92.2494 193° South 153 176 800  Level Memphis Center
Tue 07:28:44 AM 34.6739 -92.2411 170° South 186 214 2,800 2,083 Climbing Memphis Center
Tue 07:29:51 AM 34.6078 -92.2042 155° Southeast 253 291 5,000 2,258 Climbing Memphis Center
Tue 07:30:00 AM 34.4981 -92.3859 190° South  Level Estimated
Tue 07:30:17 AM 34.5764 -92.2011 175° South 252 290 6,300  Level Memphis Center
Tue 07:31:00 AM 34.4117 -92.3608 167° South  Level FlightAware Approximate
Tue 07:31:17 AM 34.5094 -92.2122 188° South 258 297 8,600  Level Memphis Center
Tue 07:32:00 AM 34.3351 -92.4154 193° South  Level Estimated
Tue 07:32:17 AM 34.4364 -92.2283 190° South 265 305 10,700  Level Memphis Center
Tue 07:33:17 AM 34.3464 -92.2439 188° South 291 335 11,600 1,300 Climbing Memphis Center
Tue 07:34:17 AM 34.2522 -92.2594 188° South 324 373 13,300 1,750 Climbing Memphis Center
Tue 07:35:17 AM 34.1558 -92.2797 190° South 345 397 15,100 1,750 Climbing Memphis Center
Tue 07:36:17 AM 34.0700 -92.2981 190° South 356 410 16,800 1,700 Climbing Memphis Center
Tue 07:37:17 AM 33.9717 -92.3158 189° South 356 410 18,500 1,901 Climbing Memphis Center
Tue 07:38:39 AM 33.8331 -92.3403 188° South 358 412 21,300 1,479 Climbing Fort Worth Center
Tue 07:39:39 AM 33.7314 -92.3586 189° South 363 418 22,000 350 Climbing Fort Worth Center
Tue 07:40:39 AM 33.6197 -92.3800 189° South 387 445 22,000  Level Fort Worth Center
Tue 07:41:39 AM 33.5056 -92.3989 188° South 409 471 22,000  Level Fort Worth Center
Tue 07:43:39 AM 33.2861 -92.4389 189° South 409 471 22,000  Level Fort Worth Center
Tue 07:44:39 AM 33.1719 -92.4600 189° South 409 471 22,000  Level Fort Worth Center
Tue 07:45:39 AM 33.0642 -92.4783 188° South 404 465 22,000  Level Fort Worth Center
Tue 07:46:39 AM 32.9461 -92.4997 189° South 410 472 22,000  Level Fort Worth Center
Tue 07:47:39 AM 32.8322 -92.5208 189° South 410 472 22,000  Level Fort Worth Center
Tue 07:48:39 AM 32.7203 -92.5394 188° South 410 472 22,000  Level Fort Worth Center
Tue 07:50:59 AM 32.4531 -92.5903 189° South 414 476 22,000  Level Houston Center
Tue 07:52:00 AM 32.3394 -92.6108 189° South 414 476 22,000  Level Houston Center
Tue 07:53:01 AM 32.2247 -92.6317 189° South 416 479 22,000  Level Houston Center
Tue 07:54:02 AM 32.1111 -92.6517 188° South 415 478 22,000  Level Houston Center
Tue 07:55:03 AM 31.9975 -92.6733 189° South 414 476 22,000  Level Houston Center
Tue 07:56:04 AM 31.9064 -92.7414 212° Southwest 398 458 22,000  Level Houston Center
Tue 07:57:06 AM 31.8250 -92.8222 220° Southwest 387 445 22,000  Level Houston Center
Tue 07:58:07 AM 31.7411 -92.9028 219° Southwest 391 450 22,000  Level Houston Center
Tue 07:59:08 AM 31.6408 -92.9994 219° Southwest 389 448 22,000  Level Houston Center
Tue 08:00:09 AM 31.5572 -93.0803 219° Southwest 392 451 22,000  Level Houston Center
Tue 08:01:11 AM 31.4731 -93.1614 219° Southwest 392 451 22,000  Level Houston Center
Tue 08:02:12 AM 31.3875 -93.2417 219° Southwest 394 453 22,000  Level Houston Center
Tue 08:03:13 AM 31.3028 -93.3208 219° Southwest 392 451 22,000  Level Houston Center
Tue 08:04:14 AM 31.2192 -93.4025 220° Southwest 394 453 22,000  Level Houston Center
Tue 08:05:15 AM 31.1372 -93.4783 218° Southwest 383 441 22,000  Level Houston Center
Tue 08:06:17 AM 31.0617 -93.5525 220° Southwest 362 417 22,000  Level Houston Center
Tue 08:07:18 AM 30.9806 -93.6278 219° Southwest 366 421 22,000  Level Houston Center
Tue 08:08:19 AM 30.8856 -93.7183 219° Southwest 366 421 22,000  Level Houston Center
Tue 08:09:21 AM 30.8042 -93.7944 219° Southwest 372 428 22,000  Level Houston Center
Tue 08:10:22 AM 30.7222 -93.8708 219° Southwest 374 430 22,000 -590 Level Houston Center
Tue 08:11:23 AM 30.6419 -93.9469 219° Southwest 372 428 20,800 -1,366 Descending Houston Center
Tue 08:12:25 AM 30.5642 -94.0192 219° Southwest 359 413 19,200 -1,455 Descending Houston Center
Tue 08:13:02 AM 30.5153 -94.0656 219° Southwest 343 395 18,400 -1,377 Descending Houston Center
Tue 08:13:26 AM 30.4900 -94.0903 220° Southwest 346 398 17,800 -1,745 Descending Houston Center
Tue 08:13:57 AM 30.4597 -94.1408 235° Southwest 347 399 16,800 -1,645 Descending Houston Center
Tue 08:14:28 AM 30.4386 -94.1864 242° Southwest 348 400 16,100 -1,791 Descending Houston Center
Tue 08:15:04 AM 30.4100 -94.2519 243° Southwest 343 395 14,800 -1,770 Descending Houston Center
Tue 08:15:29 AM 30.3947 -94.2831 240° Southwest 340 391 14,300 -1,636 Descending Houston Center
Tue 08:15:59 AM 30.3681 -94.3397 241° Southwest 331 381 13,300 -1,672 Descending Houston Center
Tue 08:16:30 AM 30.3503 -94.3761 240° Southwest 330 380 12,600 -1,742 Descending Houston Center
Tue 08:17:01 AM 30.3244 -94.4303 241° Southwest 322 371 11,500 -1,645 Descending Houston Center
Tue 08:17:32 AM 30.3092 -94.4664 244° Southwest 321 369 10,900 -1,400 Descending Houston Center
Tue 08:18:01 AM 30.2833 -94.5228 242° Southwest 314 361 10,100 -885 Descending Houston Center
Tue 08:18:33 AM 30.2672 -94.5539 239° Southwest 313 360 10,000 -98 Descending Houston Center
Tue 08:19:02 AM 30.2394 -94.6131 241° Southwest 307 353 10,000  Level Houston Center
Tue 08:19:35 AM 30.2283 -94.6417 246° West 310 357 10,000  Level Houston Center
Tue 08:20:03 AM 30.1975 -94.7008 239° Southwest 312 359 10,000  Level Houston Center
Tue 08:20:36 AM 30.1783 -94.7475 245° Southwest 311 358 10,000  Level Houston Center
Tue 08:21:04 AM 30.1578 -94.7906 241° Southwest 312 359 10,000  Level Houston Center
Tue 08:21:38 AM 30.1367 -94.8350 241° Southwest 312 359 10,000  Level Houston Center
Tue 08:22:06 AM 30.1158 -94.8781 241° Southwest 310 357 10,000  Level Houston Center
Tue 08:22:39 AM 30.1056 -94.9236 255° West 304 350 10,000 -492 Level Houston Center
Tue 08:23:07 AM 30.1056 -94.9711 270° West 270 311 9,500 -968 Descending Houston Center
Tue 08:23:41 AM 30.1061 -95.0103 271° West 273 314 9,000 -982 Descending Houston Center
Tue 08:24:02 AM 30.1050 -95.0533 268° West 273 314 8,600 -984 Descending Houston Center
Tue 08:24:42 AM 30.1058 -95.0978 271° West 273 314 8,000 -985 Descending Houston Center
Tue 08:25:09 AM 30.1053 -95.1475 269° West 271 312 7,500 -968 Descending Houston Center
Tue 08:25:44 AM 30.1061 -95.1831 272° West 270 311 7,000 -1,082 Descending Houston Center
Tue 08:26:10 AM 30.1050 -95.2344 269° West 270 311 6,400 -885 Descending Houston Center
Tue 08:26:45 AM 30.1072 -95.2703 274° West 272 313 6,100 -387 Descending Houston Center
Tue 08:27:12 AM 30.1053 -95.3286 268° West 276 318 6,000 -97 Descending Houston Center
Tue 08:27:47 AM 30.1069 -95.3756 272° West 275 316 6,000 -393 Level Houston Center
Tue 08:28:13 AM 30.1069 -95.4153 270° West 275 316 5,600 -1,082 Descending Houston Center
Tue 08:28:48 AM 30.1067 -95.4611 270° West 270 311 4,900 -1,254 Descending Houston Center
Tue 08:29:20 AM 30.1053 -95.5144 268° West 269 310 4,200 -1,161 Descending Houston Center
Tue 08:29:50 AM 30.1064 -95.5472 272° West 269 310 3,700 -1,200 Descending Houston Center
Tue 08:30:15 AM 30.1061 -95.5917 270° West 256 295 3,100 -677 Descending Houston Center
Tue 08:30:52 AM 30.1067 -95.6300 271° West 262 302 3,000 -97 Descending Houston Center
Tue 08:31:17 AM 30.1047 -95.6717 267° West 255 293 3,000  Level Houston Center
Tue 08:31:53 AM 30.0944 -95.7083 252° West 254 292 3,000  Level Houston Center
Tue 08:32:18 AM 30.0756 -95.7450 239° Southwest 248 285 3,000  Level Houston Center
Tue 08:32:55 AM 30.0478 -95.7533 195° South 243 280 3,000  Level Houston Center
Tue 08:33:19 AM 30.0189 -95.7228 138° Southeast 235 270 3,000  Level Houston Center
Tue 08:33:57 AM 30.0075 -95.6797 107° East 236 272 3,000 97 Level Houston Center
Tue 08:34:21 AM 30.0064 -95.6517 93° East 220 253 3,100  Climbing Houston Center
Tue 08:34:58 AM 30.0069 -95.6114 89° East 216 249 3,000 -98 Descending Houston Center
Tue 08:35:22 AM 30.0069 -95.5867 90° East 203 234 3,000  Level Houston Center
Tue 08:36:00 AM 30.0075 -95.5458 89° East 208 239 3,000 -295 Level Houston Center
Tue 08:36:23 AM 30.0050 -95.5192 96° East 207 238 2,700 -783 Descending Houston Center

Login

Don't have an account? Register now (free) for customized features, flight alerts, and more!